Time;durP1;ratioP1;P1;durP2;ratioP2;P2;SDS_P1;SDS_P2;PMS_P1;PMS_P2;Temp;Humidity;BMP_temperature;BMP_pressure;BME280_temperature;BME280_humidity;BME280_pressure;Samples;Min_cycle;Max_cycle;Signal;HPM_P1;HPM_P2
2022/05/03 00:00:32;;;;;;;;;;;3.80;99.90;;;;;;4995459;28;20148;-43
2022/05/03 00:03:24;;;;;;;10.32;7.00;;;3.60;99.90;;;;;;4996267;28;19933;-43
2022/05/03 00:06:08;;;;;;;10.35;8.18;;;3.60;99.90;;;;;;4992481;28;20052;-44
2022/05/03 00:08:40;;;;;;;12.73;8.20;;;3.60;99.90;;;;;;4994598;28;20049;-44
2022/05/03 00:11:31;;;;;;;9.77;7.63;;;3.60;99.90;;;;;;4995205;28;20658;-43
2022/05/03 00:14:00;;;;;;;9.82;7.25;;;3.30;99.90;;;;;;4995988;28;20466;-44
2022/05/03 00:16:26;;;;;;;11.38;8.48;;;3.50;99.90;;;;;;4996364;28;20045;-42
2022/05/03 00:18:54;;;;;;;9.68;7.10;;;3.60;99.90;;;;;;4996225;28;20779;-46
2022/05/03 00:21:21;;;;;;;12.90;8.68;;;;;;;;;;4993639;28;20585;-42
2022/05/03 00:23:47;;;;;;;13.18;8.88;;;;;;;;;;4997299;28;20136;-44
2022/05/03 00:26:15;;;;;;;10.48;7.97;;;3.50;99.90;;;;;;4998253;28;20212;-44
2022/05/03 00:28:42;;;;;;;14.27;9.30;;;3.30;99.90;;;;;;4997676;28;20081;-47
2022/05/03 00:31:09;;;;;;;10.57;8.70;;;;;;;;;;4993563;28;20044;-47
2022/05/03 00:33:35;;;;;;;10.68;7.90;;;;;;;;;;5010214;28;20135;-47
2022/05/03 00:36:01;;;;;;;12.32;8.13;;;;;;;;;;5094149;28;20038;-48
2022/05/03 00:38:27;;;;;;;8.88;7.35;;;;;;;;;;5093552;28;20047;-44
2022/05/03 00:40:59;;;;;;;8.52;6.10;;;3.30;99.90;;;;;;5094342;28;20058;-43
2022/05/03 00:43:27;;;;;;;10.70;7.97;;;3.40;99.90;;;;;;5093471;28;20043;-43
2022/05/03 00:46:02;;;;;;;10.98;7.65;;;3.40;99.90;;;;;;5092970;28;20048;-43
2022/05/03 00:49:03;;;;;;;11.05;8.35;;;3.40;99.90;;;;;;5092527;28;20051;-44
2022/05/03 00:51:45;;;;;;;12.02;8.95;;;3.30;99.90;;;;;;5009288;28;20042;-46
2022/05/03 00:54:11;;;;;;;10.70;8.77;;;;;;;;;;5009225;28;20053;-46
2022/05/03 00:56:43;;;;;;;9.80;7.50;;;3.20;99.90;;;;;;5009949;28;20045;-45
2022/05/03 00:59:15;;;;;;;;;;;3.20;99.90;;;;;;5010401;28;20050;-43
2022/05/03 01:01:59;;;;;;;8.73;6.22;;;3.20;99.90;;;;;;5009598;28;20397;-43
2022/05/03 01:04:43;;;;;;;11.32;7.50;;;3.10;99.90;;;;;;5009440;28;20140;-42
2022/05/03 01:07:32;;;;;;;16.17;8.98;;;3.20;99.90;;;;;;5009195;28;20507;-40
2022/05/03 01:09:58;;;;;;;9.88;8.07;;;;;;;;;;5008176;28;20096;-41
2022/05/03 01:12:52;;;;;;;10.55;9.18;;;2.90;99.90;;;;;;5010066;28;20050;-40
2022/05/03 01:15:23;;;;;;;14.13;10.95;;;3.00;99.90;;;;;;5008571;28;20311;-41
2022/05/03 01:17:49;;;;;;;12.27;9.52;;;;;;;;;;5008596;28;21078;-42
2022/05/03 01:20:40;;;;;;;15.77;11.18;;;3.10;99.90;;;;;;5009823;28;20056;-41
2022/05/03 01:23:23;;;;;;;12.38;10.65;;;2.90;99.90;;;;;;5013862;28;20049;-40
2022/05/03 01:25:49;;;;;;;13.25;10.93;;;;;;;;;;5064948;28;20047;-40
2022/05/03 01:28:43;;;;;;;15.85;12.75;;;3.10;99.90;;;;;;5097060;28;20039;-43
2022/05/03 01:31:14;;;;;;;16.20;12.55;;;3.00;99.90;;;;;;5097059;28;20046;-40
2022/05/03 01:33:45;;;;;;;14.50;12.30;;;3.10;99.90;;;;;;5096712;28;20052;-40
2022/05/03 01:36:11;;;;;;;15.55;11.00;;;;;;;;;;5096699;28;20043;-42
2022/05/03 01:39:02;;;;;;;12.73;10.27;;;2.90;99.90;;;;;;5096395;28;20403;-40
2022/05/03 01:41:54;;;;;;;10.18;8.60;;;3.10;99.90;;;;;;5097272;28;20043;-42
2022/05/03 01:44:39;;;;;;;9.77;8.32;;;3.30;99.90;;;;;;5097023;28;20056;-43
2022/05/03 01:47:23;;;;;;;10.35;8.65;;;2.80;99.90;;;;;;5097009;28;20121;-45
2022/05/03 01:50:20;;;;;;;11.82;8.93;;;2.80;99.90;;;;;;5095381;28;20039;-42
2022/05/03 01:53:07;;;;;;;12.35;8.48;;;2.80;99.90;;;;;;5094897;28;20055;-42
2022/05/03 01:56:17;;;;;;;12.68;8.20;;;2.20;99.90;;;;;;5095397;28;20071;-43
2022/05/03 01:59:02;;;;;;;9.82;7.72;;;2.80;99.90;;;;;;5015271;28;20065;-41
2022/05/03 02:01:59;;;;;;;9.15;7.60;;;2.70;99.90;;;;;;5032369;28;20511;-43
2022/05/03 02:04:56;;;;;;;11.18;9.02;;;2.60;99.90;;;;;;4991933;28;20064;-41
2022/05/03 02:07:25;;;;;;;9.63;8.00;;;2.70;99.90;;;;;;4993148;28;20057;-44
2022/05/03 02:09:56;;;;;;;10.77;7.03;;;2.60;99.90;;;;;;4992308;28;20140;-44
2022/05/03 02:12:22;;;;;;;8.65;7.30;;;;;;;;;;4993370;28;20081;-42
2022/05/03 02:14:48;;;;;;;8.45;7.15;;;;;;;;;;4991356;28;20068;-44
2022/05/03 02:17:29;;;;;;;8.25;6.88;;;2.70;99.90;;;;;;4991329;28;20141;-45
2022/05/03 02:20:14;;;;;;;10.85;7.93;;;2.80;99.90;;;;;;4992123;28;20184;-45
2022/05/03 02:22:58;;;;;;;12.60;8.32;;;2.80;99.90;;;;;;4991358;28;20670;-45
2022/05/03 02:25:58;;;;;;;10.05;8.00;;;2.80;99.90;;;;;;4991788;28;20046;-44
2022/05/03 02:28:24;;;;;;;10.32;7.57;;;;;;;;;;4992680;28;20501;-46
2022/05/03 02:30:54;;;;;;;11.93;9.85;;;2.90;99.90;;;;;;4991120;28;20084;-49
2022/05/03 02:33:27;;;;;;;12.13;8.75;;;2.90;99.90;;;;;;4990715;28;20034;-45
2022/05/03 02:35:57;;;;;;;;;;;3.10;99.90;;;;;;5005664;28;20509;-43
2022/05/03 02:39:02;;;;;;;11.45;10.25;;;3.00;99.90;;;;;;5032523;28;20523;-44
2022/05/03 02:41:33;;;;;;;14.15;11.43;;;3.40;99.90;;;;;;5067716;28;20139;-43
2022/05/03 02:44:02;;;;;;;12.48;11.00;;;3.50;99.90;;;;;;5095941;28;20065;-42
2022/05/03 02:47:08;;;;;;;13.52;11.10;;;3.60;99.90;;;;;;5095810;28;20159;-43
2022/05/03 02:49:37;;;;;;;13.48;12.07;;;3.70;99.90;;;;;;5095888;28;20031;-44
2022/05/03 02:52:05;;;;;;;14.90;12.73;;;3.80;99.90;;;;;;5095780;28;20092;-43
2022/05/03 02:55:06;;;;;;;21.60;15.80;;;4.00;99.90;;;;;;5096318;28;20044;-43
2022/05/03 02:57:55;;;;;;;18.20;15.95;;;4.00;99.90;;;;;;5094883;28;20044;-47
2022/05/03 03:03:59;;;;;;;18.08;15.85;;;4.10;99.90;;;;;;5032399;28;20257;-47
2022/05/03 03:06:33;;;;;;;18.35;15.02;;;4.30;99.90;;;;;;4992770;28;20050;-48
2022/05/03 03:09:01;;;;;;;21.05;15.95;;;4.40;99.90;;;;;;4991787;28;20706;-45
2022/05/03 03:11:34;;;;;;;18.48;15.88;;;4.40;99.90;;;;;;4992260;28;20410;-47
2022/05/03 03:14:07;;;;;;;17.52;14.95;;;4.40;99.90;;;;;;4993757;28;20688;-45
2022/05/03 03:16:35;;;;;;;19.88;16.42;;;4.60;99.90;;;;;;4976658;28;20053;-44
2022/05/03 03:19:38;;;;;;;20.65;17.33;;;4.50;99.90;;;;;;4992220;28;20053;-43
2022/05/03 03:22:10;;;;;;;21.25;17.55;;;4.50;99.90;;;;;;4992288;28;20463;-46
2022/05/03 03:24:37;;;;;;;17.77;15.88;;;;;;;;;;4991716;28;20077;-48
2022/05/03 03:27:05;;;;;;;21.95;17.45;;;4.70;99.90;;;;;;4990561;28;20096;-45
2022/05/03 03:29:33;;;;;;;21.55;18.25;;;4.70;99.90;;;;;;4990634;28;20054;-48
2022/05/03 03:32:01;;;;;;;24.88;19.48;;;4.80;99.90;;;;;;4991246;28;20050;-45
2022/05/03 03:34:28;;;;;;;25.70;19.83;;;6.90;99.90;;;;;;4992317;28;20091;-44
2022/05/03 03:37:01;;;;;;;20.05;17.58;;;4.90;99.90;;;;;;5002426;28;20045;-48
2022/05/03 03:39:31;;;;;;;22.98;18.45;;;4.80;99.90;;;;;;5030870;28;20737;-44
2022/05/03 03:42:06;;;;;;;28.17;22.35;;;5.10;99.90;;;;;;5049474;28;20048;-45
2022/05/03 03:44:33;;;;;;;29.15;22.05;;;;;;;;;;5093146;28;20052;-47
2022/05/03 03:47:00;;;;;;;29.73;23.10;;;5.20;99.90;;;;;;5094677;28;20839;-44
2022/05/03 03:49:26;;;;;;;32.28;25.02;;;5.30;99.90;;;;;;5094466;28;20050;-47
2022/05/03 03:51:54;;;;;;;32.90;25.45;;;5.50;99.90;;;;;;5093107;28;20622;-46
2022/05/03 03:54:21;;;;;;;30.88;24.55;;;5.50;99.90;;;;;;5092606;28;20032;-44
2022/05/03 03:56:48;;;;;;;29.25;24.85;;;;;;;;;;5094333;28;20042;-47
2022/05/03 03:59:16;;;;;;;28.30;24.52;;;5.60;99.90;;;;;;5095032;28;21116;-45
2022/05/03 04:01:43;;;;;;;28.48;23.52;;;5.60;99.90;;;;;;5094646;28;20035;-45
2022/05/03 04:04:11;;;;;;;30.65;25.77;;;5.60;99.90;;;;;;5094290;28;20041;-45
2022/05/03 04:06:38;;;;;;;29.10;25.08;;;5.90;99.90;;;;;;5094680;28;20043;-48
2022/05/03 04:09:04;;;;;;;25.85;22.83;;;5.90;99.90;;;;;;5094350;28;20027;-45
2022/05/03 04:11:44;;;;;;;26.63;22.17;;;5.90;99.90;;;;;;5094307;28;20051;-45
2022/05/03 04:14:14;;;;;;;29.45;23.85;;;6.00;99.90;;;;;;5095077;28;20047;-47
2022/05/03 04:16:41;;;;;;;29.75;23.90;;;5.90;99.90;;;;;;5093722;28;20089;-48
2022/05/03 04:19:07;;;;;;;32.05;25.15;;;6.10;99.90;;;;;;5093288;28;20310;-49
2022/05/03 04:21:34;;;;;;;33.05;24.73;;;6.00;99.90;;;;;;5093983;28;20049;-46
2022/05/03 04:24:00;;;;;;;29.67;24.55;;;;;;;;;;5093571;28;20035;-48
2022/05/03 04:26:26;;;;;;;29.27;25.17;;;6.30;99.90;;;;;;5093620;28;20697;-47
2022/05/03 04:29:00;;;;;;;30.00;24.60;;;6.30;99.90;;;;;;5092968;28;20449;-50
2022/05/03 04:31:35;;;;;;;29.95;25.02;;;6.10;99.90;;;;;;5093349;28;20044;-49
2022/05/03 04:34:03;;;;;;;27.23;22.50;;;6.30;99.90;;;;;;5092998;28;20071;-48
2022/05/03 04:36:30;;;;;;;31.95;23.88;;;6.30;99.90;;;;;;5092833;28;20439;-49
2022/05/03 04:38:56;;;;;;;28.30;23.70;;;6.40;99.90;;;;;;5092561;28;20096;-48
2022/05/03 04:41:23;;;;;;;29.05;22.80;;;6.50;99.90;;;;;;5092968;28;20032;-47
2022/05/03 04:43:51;;;;;;;27.30;21.23;;;6.50;99.90;;;;;;5092280;28;20053;-48
2022/05/03 04:46:17;;;;;;;27.33;22.05;;;6.40;99.90;;;;;;5092076;28;21713;-45
2022/05/03 04:48:43;;;;;;;29.85;22.60;;;6.50;99.90;;;;;;5094014;28;20075;-46
2022/05/03 04:51:20;;;;;;;27.05;20.65;;;6.50;99.90;;;;;;5091388;28;20043;-50
2022/05/03 04:53:46;;;;;;;26.42;21.13;;;6.70;99.90;;;;;;5091446;28;20054;-47
2022/05/03 04:56:24;;;;;;;27.30;21.40;;;6.80;99.90;;;;;;5092015;28;20032;-45
2022/05/03 04:58:50;;;;;;;27.20;21.50;;;6.80;99.90;;;;;;5092602;28;20024;-48
2022/05/03 05:01:17;;;;;;;28.00;22.90;;;6.90;99.90;;;;;;5090974;28;20063;-45
2022/05/03 05:03:44;;;;;;;23.98;20.75;;;7.30;99.90;;;;;;5092116;28;20511;-47
2022/05/03 05:06:11;;;;;;;26.38;21.33;;;6.90;99.90;;;;;;5091843;28;20524;-49
2022/05/03 05:08:42;;;;;;;28.02;22.77;;;7.20;99.90;;;;;;5092535;28;20075;-44
2022/05/03 05:11:08;;;;;;;28.15;22.77;;;7.00;99.90;;;;;;5094057;28;20077;-45
2022/05/03 05:13:35;;;;;;;29.10;22.13;;;7.40;99.90;;;;;;5094333;28;20039;-47
2022/05/03 05:16:01;;;;;;;33.08;24.10;;;7.10;99.90;;;;;;5091037;28;20419;-46
2022/05/03 05:18:27;;;;;;;25.55;21.25;;;7.80;99.90;;;;;;5090419;28;20036;-47
2022/05/03 05:20:53;;;;;;;25.95;21.05;;;8.30;99.90;;;;;;5092313;28;20062;-45
2022/05/03 05:23:19;;;;;;;27.13;22.52;;;7.30;99.90;;;;;;5094568;28;20058;-51
2022/05/03 05:25:48;;;;;;;28.33;21.15;;;7.20;99.90;;;;;;5092517;28;20044;-50
2022/05/03 05:28:14;;;;;;;30.48;24.92;;;7.30;99.90;;;;;;5093026;28;20555;-46
2022/05/03 05:30:41;;;;;;;27.05;21.67;;;7.50;99.90;;;;;;5091797;28;20500;-48
2022/05/03 05:33:09;;;;;;;30.83;24.75;;;7.40;99.90;;;;;;5093298;28;20040;-48
2022/05/03 05:35:37;;;;;;;30.13;23.40;;;7.40;99.90;;;;;;5093634;28;20035;-49
2022/05/03 05:38:03;;;;;;;29.85;22.58;;;7.30;99.90;;;;;;5092747;28;20046;-51
2022/05/03 05:40:29;;;;;;;32.08;24.88;;;7.40;99.90;;;;;;5091608;28;20039;-49
2022/05/03 05:42:55;;;;;;;31.20;24.55;;;7.60;99.90;;;;;;5092278;28;20040;-50
2022/05/03 05:45:21;;;;;;;34.22;24.60;;;8.30;99.90;;;;;;5092881;28;20056;-47
2022/05/03 05:47:47;;;;;;;31.40;23.95;;;7.50;99.90;;;;;;5091248;28;20058;-51
2022/05/03 05:50:14;;;;;;;28.52;22.85;;;7.70;99.90;;;;;;5090830;28;20062;-50
2022/05/03 05:55:26;;;;;;;31.65;25.45;;;7.60;99.90;;;;;;5092585;28;20134;-48
2022/05/03 05:57:52;;;;;;;31.40;25.00;;;8.10;99.90;;;;;;5092127;28;20458;-48
2022/05/03 06:00:18;;;;;;;36.45;25.20;;;7.80;99.90;;;;;;5091565;28;20043;-49
2022/05/03 06:02:45;;;;;;;31.83;25.02;;;7.90;99.90;;;;;;5092053;28;20127;-50
2022/05/03 06:05:11;;;;;;;34.28;25.13;;;9.30;99.90;;;;;;5092899;28;20035;-49
2022/05/03 06:07:37;;;;;;;35.50;26.83;;;8.00;99.90;;;;;;5092100;28;20039;-51
2022/05/03 06:10:05;;;;;;;34.20;25.17;;;7.90;99.90;;;;;;5095153;28;20043;-48
2022/05/03 06:12:31;;;;;;;32.80;27.65;;;8.00;99.90;;;;;;5095945;28;20484;-49
2022/05/03 06:14:57;;;;;;;36.78;25.75;;;8.00;99.90;;;;;;5095376;28;20047;-50
2022/05/03 06:17:23;;;;;;;34.60;24.02;;;9.30;99.90;;;;;;5095547;28;20048;-50
2022/05/03 06:19:49;;;;;;;31.65;24.45;;;8.10;99.90;;;;;;5094779;28;20119;-47
2022/05/03 06:22:15;;;;;;;30.63;23.00;;;8.30;99.90;;;;;;5096036;28;20051;-48
2022/05/03 06:24:40;;;;;;;31.83;24.08;;;9.20;99.90;;;;;;5095026;28;20040;-47
2022/05/03 06:27:06;;;;;;;35.58;25.48;;;7.50;99.90;;;;;;5094464;28;20036;-51
2022/05/03 06:29:32;;;;;;;35.25;21.38;;;8.20;99.90;;;;;;5095729;28;20120;-49
2022/05/03 06:31:59;;;;;;;25.58;14.40;;;8.20;99.90;;;;;;5094297;28;20440;-47
2022/05/03 06:34:25;;;;;;;25.58;12.05;;;8.40;99.90;;;;;;5094659;28;20115;-51
2022/05/03 06:36:51;;;;;;;22.05;9.40;;;8.40;99.90;;;;;;5094308;28;20865;-44
2022/05/03 06:39:19;;;;;;;15.48;6.88;;;9.10;99.90;;;;;;5095842;27;20144;-46
2022/05/03 06:41:44;;;;;;;17.67;6.47;;;9.30;99.90;;;;;;5094893;28;20040;-45
2022/05/03 06:44:10;;;;;;;20.17;6.57;;;8.70;99.90;;;;;;5095550;28;20035;-49
2022/05/03 06:46:38;;;;;;;16.20;6.47;;;9.00;99.90;;;;;;5094943;28;20338;-46
2022/05/03 06:49:03;;;;;;;19.33;6.60;;;8.90;99.90;;;;;;5094571;28;20251;-45
2022/05/03 06:51:29;;;;;;;21.58;6.13;;;9.40;99.90;;;;;;5093554;28;20039;-44
2022/05/03 06:53:55;;;;;;;15.13;5.45;;;9.80;99.90;;;;;;5095097;28;20086;-46
2022/05/03 06:56:20;;;;;;;12.02;5.78;;;8.90;99.90;;;;;;5092801;28;20370;-47
2022/05/03 06:58:46;;;;;;;12.65;5.50;;;9.10;99.90;;;;;;5092541;28;20039;-46
2022/05/03 07:01:14;;;;;;;14.05;6.13;;;8.80;99.90;;;;;;5093785;28;20039;-44
2022/05/03 07:03:41;;;;;;;20.70;6.50;;;8.80;99.90;;;;;;5093149;27;20250;-44
2022/05/03 07:06:08;;;;;;;17.50;5.85;;;8.90;99.90;;;;;;5093742;28;20040;-43
2022/05/03 07:08:36;;;;;;;18.58;5.35;;;8.70;99.90;;;;;;5093692;28;20044;-48
2022/05/03 07:11:02;;;;;;;17.25;6.05;;;9.00;99.90;;;;;;5094312;28;20058;-43
2022/05/03 07:13:28;;;;;;;17.70;5.97;;;8.90;99.90;;;;;;5092975;28;20086;-43
2022/05/03 07:15:56;;;;;;;23.45;6.95;;;8.90;99.90;;;;;;5095251;28;20114;-42
2022/05/03 07:23:54;;;;;;;24.75;7.88;;;8.90;99.90;;;;;;5092900;28;20050;-48
2022/05/03 07:26:21;;;;;;;27.38;8.02;;;8.90;99.90;;;;;;5094003;28;20040;-45
2022/05/03 07:28:48;;;;;;;22.83;6.43;;;9.10;99.90;;;;;;5094586;28;20171;-44
2022/05/03 07:31:18;;;;;;;23.50;9.02;;;9.00;99.90;;;;;;5095518;28;20054;-43
2022/05/03 07:33:45;;;;;;;27.75;8.50;;;10.00;99.90;;;;;;5092112;28;20067;-43
2022/05/03 07:36:11;;;;;;;23.67;7.10;;;9.20;99.90;;;;;;5093494;28;20044;-43
2022/05/03 07:38:42;;;;;;;20.50;6.25;;;9.30;99.90;;;;;;5093896;28;20502;-45
2022/05/03 07:41:07;;;;;;;18.63;6.65;;;10.60;99.90;;;;;;5094190;28;20540;-45
2022/05/03 07:43:34;;;;;;;20.98;7.05;;;10.40;99.90;;;;;;5093430;28;20028;-43
2022/05/03 07:46:01;;;;;;;19.92;6.45;;;11.10;99.90;;;;;;5093401;28;20057;-45
2022/05/03 07:48:27;;;;;;;29.05;7.15;;;9.20;99.90;;;;;;5093015;28;20050;-45
2022/05/03 07:50:52;;;;;;;22.23;5.90;;;9.40;99.90;;;;;;5093716;28;20043;-45
2022/05/03 07:53:18;;;;;;;22.52;6.35;;;8.60;99.90;;;;;;5094653;28;20880;-45
2022/05/03 07:55:45;;;;;;;25.35;6.13;;;9.60;99.90;;;;;;5093350;28;20121;-44
2022/05/03 07:58:11;;;;;;;17.17;4.80;;;9.50;99.90;;;;;;5091424;28;20048;-48
2022/05/03 08:00:36;;;;;;;23.02;5.65;;;9.70;99.90;;;;;;5094751;28;20032;-48
2022/05/03 08:03:02;;;;;;;25.77;6.63;;;9.50;99.90;;;;;;5093846;28;20039;-47
2022/05/03 08:05:28;;;;;;;20.02;4.45;;;9.80;99.90;;;;;;5093668;28;20408;-44
2022/05/03 08:07:54;;;;;;;19.83;4.25;;;10.00;99.90;;;;;;5093252;28;20035;-45
2022/05/03 08:10:20;;;;;;;24.23;5.13;;;9.80;99.90;;;;;;5094172;28;20039;-48
2022/05/03 08:12:50;;;;;;;23.98;4.82;;;10.80;99.90;;;;;;5094501;28;20305;-43
2022/05/03 08:15:22;;;;;;;23.05;5.28;;;11.50;99.90;;;;;;5092365;28;20176;-45
2022/05/03 08:17:48;;;;;;;25.83;5.87;;;10.00;99.90;;;;;;5094298;27;20039;-44
2022/05/03 08:20:15;;;;;;;26.52;5.80;;;9.80;99.90;;;;;;5093581;28;20285;-44
2022/05/03 08:22:41;;;;;;;19.67;5.22;;;9.70;99.90;;;;;;5093522;28;20043;-44
2022/05/03 08:25:08;;;;;;;22.70;4.82;;;9.80;99.90;;;;;;5093116;28;20043;-44
2022/05/03 08:27:36;;;;;;;21.42;5.78;;;9.80;99.90;;;;;;5093091;28;20061;-47
2022/05/03 08:30:04;;;;;;;22.98;4.97;;;11.30;99.90;;;;;;5092616;28;20659;-47
2022/05/03 08:32:30;;;;;;;17.67;4.80;;;9.90;99.90;;;;;;5091732;28;20053;-45
2022/05/03 08:34:55;;;;;;;20.55;4.65;;;10.10;99.90;;;;;;5091749;28;20039;-44
2022/05/03 08:42:52;;;;;;;16.08;4.18;;;10.20;99.90;;;;;;5091815;28;20043;-46
2022/05/03 08:45:20;;;;;;;20.15;3.70;;;10.90;99.90;;;;;;5092637;28;20051;-47
2022/05/03 08:47:47;;;;;;;21.60;3.55;;;10.00;99.90;;;;;;5093724;28;20039;-45
2022/05/03 08:50:14;;;;;;;21.52;3.90;;;9.90;99.90;;;;;;5092574;28;20047;-43
2022/05/03 08:52:50;;;;;;;23.92;5.05;;;11.40;99.90;;;;;;5092904;28;20035;-44
2022/05/03 08:55:17;;;;;;;14.57;4.25;;;9.90;99.90;;;;;;5091539;28;20044;-45
2022/05/03 08:57:43;;;;;;;13.95;3.42;;;11.60;99.90;;;;;;5092243;28;20031;-45
2022/05/03 09:00:10;;;;;;;16.00;3.30;;;10.20;99.90;;;;;;5092762;28;20086;-48
2022/05/03 09:02:42;;;;;;;15.80;3.35;;;10.30;99.90;;;;;;5092354;28;20054;-46
2022/05/03 09:05:08;;;;;;;22.17;5.40;;;10.30;99.90;;;;;;5090648;28;20067;-45
2022/05/03 09:07:36;;;;;;;15.52;3.20;;;10.30;99.90;;;;;;5093057;28;20036;-42
2022/05/03 09:10:23;;;;;;;21.10;3.25;;;10.50;99.90;;;;;;5092390;28;20032;-43
2022/05/03 09:12:50;;;;;;;12.18;2.70;;;10.40;99.90;;;;;;5028358;28;20061;-43
2022/05/03 09:15:32;;;;;;;18.67;3.30;;;10.50;99.90;;;;;;5030490;28;20053;-43
2022/05/03 09:17:59;;;;;;;16.58;3.55;;;10.50;99.90;;;;;;5028311;28;20092;-47
2022/05/03 09:26:12;;;;;;;15.45;3.65;;;11.50;99.90;;;;;;5029455;28;20122;-46
2022/05/03 09:28:55;;;;;;;15.48;3.50;;;11.50;99.90;;;;;;5028876;28;20656;-43
2022/05/03 09:31:33;;;;;;;13.63;2.45;;;10.90;99.90;;;;;;5029365;28;20056;-44
2022/05/03 09:34:01;;;;;;;15.20;3.08;;;12.60;99.90;;;;;;5028542;28;20044;-45
2022/05/03 09:36:27;;;;;;;12.55;3.13;;;11.20;99.90;;;;;;5029838;28;20053;-43
2022/05/03 09:38:56;;;;;;;8.52;2.40;;;11.30;99.90;;;;;;5012474;28;20040;-44
2022/05/03 09:41:22;;;;;;;14.13;2.70;;;11.30;99.90;;;;;;5028569;28;20107;-45
2022/05/03 09:44:05;;;;;;;16.77;3.03;;;11.60;99.90;;;;;;5031185;28;20060;-43
2022/05/03 09:46:52;;;;;;;10.98;2.50;;;11.60;99.90;;;;;;5031845;28;20053;-44
2022/05/03 09:49:20;;;;;;;12.35;2.42;;;11.70;99.90;;;;;;5047325;28;20054;-45
2022/05/03 09:51:46;;;;;;;14.88;2.78;;;11.80;99.90;;;;;;5094585;28;20036;-44
2022/05/03 09:54:13;;;;;;;11.57;3.13;;;13.00;99.90;;;;;;5095025;28;20125;-44
2022/05/03 09:56:42;;;;;;;12.75;2.78;;;12.30;99.90;;;;;;5095716;28;20058;-44
2022/05/03 09:59:09;;;;;;;9.90;2.55;;;12.80;99.90;;;;;;5095869;28;20050;-45
2022/05/03 10:01:35;;;;;;;13.20;2.63;;;12.60;99.90;;;;;;5095867;28;20032;-44
2022/05/03 10:04:05;;;;;;;9.05;2.08;;;12.50;99.90;;;;;;5096292;28;20931;-45
2022/05/03 10:06:32;;;;;;;11.07;2.85;;;12.80;99.90;;;;;;5096082;28;20084;-44
2022/05/03 10:08:59;;;;;;;13.23;2.10;;;13.10;99.90;;;;;;5095566;28;20043;-48
2022/05/03 10:11:26;;;;;;;7.10;1.88;;;12.80;99.90;;;;;;5094790;28;20043;-44
2022/05/03 10:13:55;;;;;;;11.40;2.85;;;12.90;99.90;;;;;;5096002;28;20039;-45
2022/05/03 10:21:57;;;;;;;10.45;2.33;;;13.30;99.90;;;;;;5093394;28;20086;-45
2022/05/03 10:24:26;;;;;;;8.77;2.20;;;14.50;99.90;;;;;;5094171;28;20032;-43
2022/05/03 10:27:07;;;;;;;14.23;1.85;;;14.00;99.90;;;;;;5094598;28;20500;-48
2022/05/03 10:29:36;;;;;;;11.23;2.17;;;13.70;99.90;;;;;;5095660;28;20043;-43
2022/05/03 10:32:08;;;;;;;10.80;2.28;;;13.90;99.90;;;;;;5094874;28;20032;-43
2022/05/03 10:34:44;;;;;;;7.30;2.22;;;14.10;99.90;;;;;;5095799;28;20039;-47
2022/05/03 10:37:12;;;;;;;11.02;2.22;;;13.80;99.90;;;;;;5094208;28;20063;-48
2022/05/03 10:39:54;;;;;;;13.85;2.40;;;15.20;99.90;;;;;;5095586;28;20648;-47
2022/05/03 10:42:25;;;;;;;9.05;2.05;;;13.20;99.90;;;;;;5094512;28;20044;-44
2022/05/03 10:45:06;;;;;;;10.07;2.00;;;13.10;99.90;;;;;;5095102;28;20093;-44
2022/05/03 10:47:54;;;;;;;10.02;1.88;;;13.20;99.90;;;;;;5095446;28;21177;-47
2022/05/03 10:50:22;;;;;;;11.38;2.10;;;13.00;99.90;;;;;;5095525;28;20035;-50
2022/05/03 10:52:59;;;;;;;10.40;2.30;;;13.40;99.90;;;;;;5095788;28;20036;-46
2022/05/03 10:56:00;;;;;;;8.63;1.98;;;13.40;99.90;;;;;;5095831;28;20088;-47
2022/05/03 10:58:27;;;;;;;10.18;1.83;;;13.10;99.90;;;;;;5031842;28;20574;-47
2022/05/03 11:01:18;;;;;;;9.60;2.05;;;13.30;99.90;;;;;;5032356;28;20114;-46
2022/05/03 11:03:57;;;;;;;12.73;2.08;;;13.50;99.90;;;;;;5031884;28;20076;-48
2022/05/03 11:06:46;;;;;;;11.15;1.73;;;13.40;99.90;;;;;;5031318;28;20240;-45
2022/05/03 11:09:15;;;;;;;9.90;1.85;;;13.60;99.90;;;;;;5011648;28;20244;-47
2022/05/03 11:11:43;;;;;;;8.55;1.88;;;13.80;99.90;;;;;;5013316;28;20688;-49
2022/05/03 11:14:15;;;;;;;10.30;1.67;;;15.40;99.90;;;;;;5011048;28;20053;-46
2022/05/03 11:16:41;;;;;;;;;;;13.90;99.90;;;;;;5012922;28;20549;-45
2022/05/03 11:19:21;;;;;;;8.73;1.60;;;15.10;99.90;;;;;;5011019;28;20357;-49
2022/05/03 11:21:48;;;;;;;9.05;2.20;;;13.70;99.90;;;;;;5012802;28;20322;-48
2022/05/03 11:24:25;;;;;;;8.70;1.85;;;13.90;99.90;;;;;;5011207;28;20041;-48
2022/05/03 11:26:55;;;;;;;10.15;1.98;;;15.90;99.90;;;;;;5009125;28;20503;-44
2022/05/03 11:29:26;;;;;;;8.73;2.03;;;13.90;99.90;;;;;;5008644;28;20058;-48
2022/05/03 11:31:52;;;;;;;7.63;1.42;;;16.10;99.90;;;;;;5009181;28;20796;-46
2022/05/03 11:34:19;;;;;;;9.43;1.90;;;14.20;99.90;;;;;;5015281;28;20092;-48
2022/05/03 11:36:47;;;;;;;7.70;1.55;;;13.90;99.90;;;;;;5070395;28;20108;-46
2022/05/03 11:39:14;;;;;;;7.65;1.77;;;13.90;99.90;;;;;;5070645;28;20082;-49
2022/05/03 11:41:42;;;;;;;5.97;1.50;;;15.80;99.90;;;;;;5071149;28;20067;-48
2022/05/03 11:44:08;;;;;;;10.73;2.00;;;14.90;99.90;;;;;;5070836;28;20048;-48
2022/05/03 11:46:34;;;;;;;8.68;1.80;;;14.90;99.90;;;;;;5084114;28;20051;-45
2022/05/03 11:49:02;;;;;;;7.13;1.45;;;16.70;99.90;;;;;;5091665;28;20039;-44
2022/05/03 11:57:27;;;;;;;7.90;1.77;;;15.70;99.90;;;;;;5093045;28;20471;-43
2022/05/03 11:59:55;;;;;;;10.10;1.40;;;15.20;99.90;;;;;;5091865;28;20100;-44
2022/05/03 12:02:36;;;;;;;6.95;1.48;;;14.60;99.90;;;;;;5091542;28;20264;-43
2022/05/03 12:05:04;;;;;;;8.18;2.00;;;14.90;99.90;;;;;;5091625;28;20081;-44
2022/05/03 12:07:51;;;;;;;6.30;1.48;;;15.60;99.90;;;;;;5091696;28;20832;-47
2022/05/03 12:10:25;;;;;;;8.30;1.77;;;15.30;99.90;;;;;;5091008;28;20046;-47
2022/05/03 12:13:08;;;;;;;8.77;1.92;;;14.50;99.90;;;;;;5092565;28;20151;-45
2022/05/03 12:15:48;;;;;;;9.20;1.75;;;14.30;99.90;;;;;;5094315;28;20031;-43
2022/05/03 12:18:29;;;;;;;8.55;1.40;;;14.10;99.90;;;;;;5092972;28;20044;-46
2022/05/03 12:21:01;;;;;;;6.32;1.42;;;14.00;99.90;;;;;;5094189;28;20150;-44
2022/05/03 12:23:39;;;;;;;8.50;1.73;;;13.80;99.90;;;;;;5093884;28;20132;-49
2022/05/03 12:26:19;;;;;;;10.10;2.13;;;13.60;99.90;;;;;;5092993;28;20293;-48
2022/05/03 12:28:51;;;;;;;9.15;2.05;;;14.40;99.90;;;;;;5093223;28;20122;-48
2022/05/03 12:31:19;;;;;;;7.97;1.67;;;14.00;99.90;;;;;;5093177;28;20391;-48
2022/05/03 12:33:53;;;;;;;5.90;1.52;;;14.10;99.90;;;;;;5092933;28;20047;-45
2022/05/03 12:36:32;;;;;;;5.63;1.55;;;14.60;99.90;;;;;;5092042;28;20610;-43
2022/05/03 12:39:19;;;;;;;11.40;1.95;;;15.90;99.90;;;;;;5090037;28;20040;-47
2022/05/03 12:41:56;;;;;;;9.10;1.60;;;15.30;99.90;;;;;;5092268;28;20552;-43
2022/05/03 12:44:23;;;;;;;8.38;1.90;;;15.70;99.90;;;;;;5091867;28;20040;-46
2022/05/03 12:46:50;;;;;;;8.25;1.70;;;16.40;99.90;;;;;;5074589;28;20381;-46
2022/05/03 12:49:16;;;;;;;6.43;1.77;;;14.90;99.90;;;;;;5091236;28;20516;-43
2022/05/03 12:51:47;;;;;;;8.65;2.22;;;15.40;99.90;;;;;;5093360;28;20047;-43
2022/05/03 12:54:13;;;;;;;8.30;2.67;;;14.50;99.90;;;;;;5091609;28;20653;-44
2022/05/03 12:59:25;;;;;;;8.02;1.92;;;14.90;99.90;;;;;;5088845;28;20419;-47
2022/05/03 13:01:54;;;;;;;14.52;1.98;;;15.90;99.90;;;;;;5091251;28;20050;-47
2022/05/03 13:04:20;;;;;;;12.85;3.83;;;14.40;99.90;;;;;;5092033;28;20094;-42
2022/05/03 13:06:48;;;;;;;22.70;10.75;;;14.70;99.90;;;;;;5091345;28;20035;-43
2022/05/03 13:09:14;;;;;;;7.03;1.85;;;15.80;99.90;;;;;;5090763;28;20263;-46
2022/05/03 13:11:41;;;;;;;7.90;2.28;;;14.10;99.90;;;;;;5091216;28;20035;-44
2022/05/03 13:14:09;;;;;;;14.82;2.70;;;14.00;99.90;;;;;;5091395;28;20063;-43
2022/05/03 13:16:36;;;;;;;19.73;2.67;;;13.80;99.90;;;;;;5092376;28;20290;-44
2022/05/03 13:19:02;;;;;;;11.80;2.13;;;16.00;99.90;;;;;;5096322;28;20075;-44
2022/05/03 13:21:39;;;;;;;35.42;2.45;;;13.90;99.90;;;;;;5094557;28;20157;-46
2022/05/03 13:24:06;;;;;;;7.43;1.75;;;13.90;99.90;;;;;;5095878;28;20404;-43
2022/05/03 13:26:34;;;;;;;10.73;2.10;;;14.00;99.90;;;;;;5096156;28;20040;-45
2022/05/03 13:29:02;;;;;;;10.38;2.70;;;14.00;99.90;;;;;;5097365;28;20055;-43
2022/05/03 13:31:28;;;;;;;6.88;1.60;;;16.40;99.90;;;;;;5096014;28;20049;-44
2022/05/03 13:33:54;;;;;;;8.25;1.80;;;14.10;99.90;;;;;;5095061;28;20050;-47
2022/05/03 13:41:51;;;;;;;12.18;2.53;;;14.00;99.90;;;;;;5095436;28;20051;-44
2022/05/03 13:44:17;;;;;;;9.27;1.92;;;14.10;99.90;;;;;;5096419;28;20048;-45
2022/05/03 13:46:42;;;;;;;13.93;2.00;;;15.00;99.90;;;;;;5097243;28;20996;-45
2022/05/03 13:49:08;;;;;;;8.65;1.90;;;14.10;99.90;;;;;;5095451;28;20508;-46
2022/05/03 13:51:34;;;;;;;9.77;2.30;;;14.40;99.90;;;;;;5095576;28;20050;-42